KLM1055 EHAM-EGSH
Flight info
| Callsign | KLM1055 |
|---|---|
| Flight time | 0h 34m |
| Altitude | 24000 |
| Route | BERGI L60 SOPEK L989 BODSO |
| Aircraft | E190/M-SDE3GILORVW/S |
Departure
| Time | 2026-05-04 18:36 |
|---|---|
| Airport | Amsterdam Airport Schiphol (EHAM) |
Arrival
| Time | 2026-05-04 19:10 |
|---|---|
| Airport | Norwich Airport (EGSH) |
| Time | Latitude | Longitude | Altitude | Speed | Heading |
|---|---|---|---|---|---|
| 2026-05-04 18:12 | 52.30038 | 4.75521 | 2 ft | 0 kts | 239° |
| 2026-05-04 18:21 | 52.30044 | 4.75536 | 2 ft | 2 kts | 225° |
| 2026-05-04 18:22 | 52.30056 | 4.75551 | 1 ft | 2 kts | 207° |
| 2026-05-04 18:22 | 52.30070 | 4.75559 | 2 ft | 2 kts | 188° |
| 2026-05-04 18:22 | 52.30085 | 4.75559 | 2 ft | 2 kts | 170° |
| 2026-05-04 18:22 | 52.30100 | 4.75552 | 2 ft | 2 kts | 152° |
| 2026-05-04 18:23 | 52.30104 | 4.75547 | 2 ft | 0 kts | 148° |
| 2026-05-04 18:24 | 52.30084 | 4.75568 | 2 ft | 6 kts | 149° |
| 2026-05-04 18:25 | 52.30027 | 4.75625 | 0 ft | 12 kts | 149° |
| 2026-05-04 18:25 | 52.29959 | 4.75637 | -1 ft | 6 kts | 230° |
| 2026-05-04 18:25 | 52.29929 | 4.75565 | 0 ft | 7 kts | 238° |
| 2026-05-04 18:25 | 52.29905 | 4.75501 | 0 ft | 7 kts | 239° |
| 2026-05-04 18:26 | 52.29868 | 4.75407 | 0 ft | 12 kts | 238° |
| 2026-05-04 18:26 | 52.29832 | 4.75253 | 0 ft | 16 kts | 275° |
| 2026-05-04 18:26 | 52.29898 | 4.75089 | 1 ft | 19 kts | 312° |
| 2026-05-04 18:26 | 52.29993 | 4.74910 | 1 ft | 23 kts | 313° |
| 2026-05-04 18:27 | 52.30106 | 4.74704 | -2 ft | 25 kts | 313° |
| 2026-05-04 18:27 | 52.30227 | 4.74480 | -7 ft | 26 kts | 310° |
| 2026-05-04 18:27 | 52.30352 | 4.74244 | -12 ft | 27 kts | 308° |
| 2026-05-04 18:27 | 52.30424 | 4.74038 | -11 ft | 15 kts | 249° |
| 2026-05-04 18:28 | 52.30410 | 4.73874 | -11 ft | 15 kts | 275° |
| 2026-05-04 18:28 | 52.30418 | 4.73705 | -8 ft | 14 kts | 272° |
| 2026-05-04 18:28 | 52.30428 | 4.73684 | -8 ft | 4 kts | 71° |
| 2026-05-04 18:28 | 52.30454 | 4.73742 | -9 ft | 8 kts | 27° |
| 2026-05-04 18:29 | 52.30532 | 4.73763 | -9 ft | 14 kts | 5° |
| 2026-05-04 18:29 | 52.30654 | 4.73774 | -10 ft | 20 kts | 3° |
| 2026-05-04 18:29 | 52.30816 | 4.73793 | -10 ft | 25 kts | 4° |
| 2026-05-04 18:29 | 52.31013 | 4.73808 | -7 ft | 29 kts | 3° |
| 2026-05-04 18:30 | 52.31414 | 4.73843 | -1 ft | 26 kts | 3° |
| 2026-05-04 18:30 | 52.31589 | 4.73863 | -3 ft | 25 kts | 3° |
| 2026-05-04 18:30 | 52.31766 | 4.73879 | -4 ft | 24 kts | 4° |
| 2026-05-04 18:31 | 52.31940 | 4.73895 | -4 ft | 25 kts | 4° |
| 2026-05-04 18:31 | 52.32043 | 4.73805 | -4 ft | 16 kts | 281° |
| 2026-05-04 18:31 | 52.32053 | 4.73623 | -4 ft | 16 kts | 276° |
| 2026-05-04 18:31 | 52.32064 | 4.73427 | -4 ft | 17 kts | 284° |
| 2026-05-04 18:32 | 52.32142 | 4.73284 | -6 ft | 17 kts | 320° |
| 2026-05-04 18:32 | 52.32231 | 4.73154 | -7 ft | 17 kts | 321° |
| 2026-05-04 18:32 | 52.32324 | 4.73024 | -8 ft | 17 kts | 320° |
| 2026-05-04 18:32 | 52.32416 | 4.72895 | -7 ft | 17 kts | 318° |
| 2026-05-04 18:33 | 52.32507 | 4.72763 | -7 ft | 17 kts | 316° |
| 2026-05-04 18:33 | 52.32603 | 4.72629 | -5 ft | 19 kts | 320° |
| 2026-05-04 18:33 | 52.32708 | 4.72466 | -4 ft | 21 kts | 310° |
| 2026-05-04 18:33 | 52.32807 | 4.72284 | -4 ft | 21 kts | 311° |
| 2026-05-04 18:34 | 52.32907 | 4.72097 | -4 ft | 22 kts | 311° |
| 2026-05-04 18:34 | 52.33012 | 4.71903 | -7 ft | 23 kts | 312° |
| 2026-05-04 18:34 | 52.33122 | 4.71693 | -8 ft | 24 kts | 306° |
| 2026-05-04 18:34 | 52.33132 | 4.71468 | -7 ft | 17 kts | 263° |
| 2026-05-04 18:35 | 52.33193 | 4.71311 | -7 ft | 17 kts | 312° |
| 2026-05-04 18:35 | 52.33281 | 4.71147 | -8 ft | 20 kts | 311° |
| 2026-05-04 18:35 | 52.33381 | 4.70972 | -7 ft | 20 kts | 320° |
| 2026-05-04 18:35 | 52.33513 | 4.70945 | -7 ft | 15 kts | 3° |
| 2026-05-04 18:36 | 52.33861 | 4.70976 | -7 ft | 88 kts | 3° |
| 2026-05-04 18:36 | 52.34697 | 4.71051 | 67 ft | 141 kts | 6° |
| 2026-05-04 18:36 | 52.35699 | 4.71149 | 648 ft | 153 kts | 4° |
| 2026-05-04 18:36 | 52.36755 | 4.71242 | 1427 ft | 155 kts | 7° |
| 2026-05-04 18:37 | 52.37883 | 4.71351 | 2050 ft | 177 kts | 6° |
| 2026-05-04 18:37 | 52.39173 | 4.71472 | 2658 ft | 199 kts | 5° |
| 2026-05-04 18:37 | 52.40615 | 4.71606 | 3382 ft | 217 kts | 4° |
| 2026-05-04 18:37 | 52.42189 | 4.71733 | 4012 ft | 243 kts | 359° |
| 2026-05-04 18:38 | 52.43816 | 4.70761 | 4704 ft | 267 kts | 321° |
| 2026-05-04 18:38 | 52.45133 | 4.68630 | 5786 ft | 272 kts | 315° |
| 2026-05-04 18:38 | 52.46447 | 4.66444 | 6965 ft | 273 kts | 315° |
| 2026-05-04 18:38 | 52.47767 | 4.64269 | 8087 ft | 273 kts | 315° |
| 2026-05-04 18:39 | 52.49105 | 4.62073 | 9154 ft | 276 kts | 315° |
| 2026-05-04 18:39 | 52.50457 | 4.59855 | 10130 ft | 281 kts | 314° |
| 2026-05-04 18:39 | 52.51887 | 4.57652 | 10950 ft | 289 kts | 324° |
| 2026-05-04 18:39 | 52.53644 | 4.55926 | 11659 ft | 302 kts | 329° |
| 2026-05-04 18:40 | 52.55475 | 4.54209 | 12336 ft | 314 kts | 329° |
| 2026-05-04 18:40 | 52.57406 | 4.52397 | 13100 ft | 324 kts | 329° |
| 2026-05-04 18:40 | 52.59349 | 4.50570 | 13918 ft | 329 kts | 329° |
| 2026-05-04 18:40 | 52.61337 | 4.48699 | 14801 ft | 332 kts | 329° |
| 2026-05-04 18:41 | 52.63333 | 4.46817 | 15689 ft | 336 kts | 329° |
| 2026-05-04 18:41 | 52.65362 | 4.44902 | 16528 ft | 341 kts | 329° |
| 2026-05-04 18:41 | 52.67411 | 4.42967 | 17315 ft | 345 kts | 328° |
| 2026-05-04 18:41 | 52.69491 | 4.41000 | 18089 ft | 351 kts | 329° |
| 2026-05-04 18:42 | 52.71618 | 4.38986 | 18858 ft | 356 kts | 328° |
| 2026-05-04 18:42 | 52.73719 | 4.36846 | 19671 ft | 356 kts | 317° |
| 2026-05-04 18:42 | 52.75199 | 4.33683 | 20477 ft | 352 kts | 292° |
| 2026-05-04 18:42 | 52.76055 | 4.29920 | 21340 ft | 351 kts | 287° |
| 2026-05-04 18:43 | 52.76841 | 4.26141 | 22155 ft | 353 kts | 287° |
| 2026-05-04 18:43 | 52.77623 | 4.22308 | 22923 ft | 356 kts | 287° |
| 2026-05-04 18:43 | 52.78404 | 4.18449 | 23637 ft | 359 kts | 286° |
| 2026-05-04 18:43 | 52.79176 | 4.14623 | 23960 ft | 352 kts | 286° |
| 2026-05-04 18:44 | 52.79961 | 4.10708 | 24016 ft | 370 kts | 286° |
| 2026-05-04 18:44 | 52.80508 | 4.07980 | 24020 ft | 383 kts | 286° |
| 2026-05-04 18:44 | 52.81633 | 4.02361 | 24013 ft | 389 kts | 286° |
| 2026-05-04 18:44 | 52.82480 | 3.98116 | 24005 ft | 389 kts | 286° |
| 2026-05-04 18:45 | 52.83319 | 3.93903 | 24003 ft | 388 kts | 286° |
| 2026-05-04 18:45 | 52.84162 | 3.89660 | 24002 ft | 388 kts | 286° |
| 2026-05-04 18:45 | 52.84997 | 3.85444 | 24004 ft | 389 kts | 286° |
| 2026-05-04 18:45 | 52.85833 | 3.81218 | 24011 ft | 388 kts | 286° |
| 2026-05-04 18:46 | 52.86669 | 3.76985 | 24012 ft | 388 kts | 286° |
| 2026-05-04 18:46 | 52.87501 | 3.72760 | 24008 ft | 388 kts | 286° |
| 2026-05-04 18:46 | 52.88334 | 3.68524 | 24015 ft | 386 kts | 286° |
| 2026-05-04 18:46 | 52.89166 | 3.64279 | 24014 ft | 387 kts | 286° |
| 2026-05-04 18:47 | 52.89991 | 3.60064 | 24011 ft | 386 kts | 286° |
| 2026-05-04 18:47 | 52.90811 | 3.55859 | 24014 ft | 387 kts | 286° |
| 2026-05-04 18:47 | 52.91630 | 3.51656 | 24021 ft | 386 kts | 286° |
| 2026-05-04 18:47 | 52.92457 | 3.47402 | 24023 ft | 386 kts | 286° |
| 2026-05-04 18:48 | 52.93273 | 3.43196 | 24026 ft | 386 kts | 286° |
| 2026-05-04 18:48 | 52.94091 | 3.38968 | 24025 ft | 386 kts | 286° |
| 2026-05-04 18:48 | 52.94907 | 3.34742 | 24024 ft | 387 kts | 285° |
| 2026-05-04 18:48 | 52.95726 | 3.30492 | 24032 ft | 386 kts | 285° |
| 2026-05-04 18:49 | 52.96539 | 3.26261 | 24030 ft | 388 kts | 285° |
| 2026-05-04 18:49 | 52.97346 | 3.22051 | 24026 ft | 388 kts | 285° |
| 2026-05-04 18:49 | 52.98160 | 3.17798 | 24027 ft | 386 kts | 285° |
| 2026-05-04 18:49 | 52.98965 | 3.13582 | 24029 ft | 386 kts | 285° |
| 2026-05-04 18:50 | 52.99754 | 3.09444 | 24018 ft | 374 kts | 285° |
| 2026-05-04 18:50 | 53.00535 | 3.05331 | 24023 ft | 371 kts | 285° |
| 2026-05-04 18:50 | 53.01303 | 3.01283 | 24028 ft | 371 kts | 285° |
| 2026-05-04 18:50 | 53.02084 | 2.97158 | 24005 ft | 373 kts | 285° |
| 2026-05-04 18:51 | 53.02848 | 2.93110 | 23643 ft | 372 kts | 285° |
| 2026-05-04 18:51 | 53.03619 | 2.89019 | 23246 ft | 369 kts | 285° |
| 2026-05-04 18:51 | 53.04375 | 2.85001 | 22845 ft | 367 kts | 285° |
| 2026-05-04 18:51 | 53.05133 | 2.80961 | 22435 ft | 365 kts | 285° |
| 2026-05-04 18:52 | 53.05883 | 2.76956 | 22039 ft | 364 kts | 286° |
| 2026-05-04 18:52 | 53.06632 | 2.72943 | 21637 ft | 363 kts | 286° |
| 2026-05-04 18:52 | 53.07372 | 2.68974 | 21240 ft | 361 kts | 286° |
| 2026-05-04 18:52 | 53.08103 | 2.65045 | 20846 ft | 360 kts | 286° |
| 2026-05-04 18:53 | 53.08846 | 2.61047 | 20447 ft | 358 kts | 286° |
| 2026-05-04 18:53 | 53.09575 | 2.57110 | 20051 ft | 357 kts | 286° |
| 2026-05-04 18:53 | 53.10300 | 2.53187 | 19659 ft | 355 kts | 286° |
| 2026-05-04 18:53 | 53.10625 | 2.49221 | 19276 ft | 351 kts | 265° |
| 2026-05-04 18:54 | 53.10198 | 2.45248 | 18890 ft | 350 kts | 258° |
| 2026-05-04 18:54 | 53.09671 | 2.41291 | 18489 ft | 349 kts | 258° |
| 2026-05-04 18:54 | 53.09140 | 2.37409 | 18107 ft | 347 kts | 257° |
| 2026-05-04 18:54 | 53.08601 | 2.33514 | 17726 ft | 345 kts | 257° |
| 2026-05-04 18:55 | 53.08064 | 2.29654 | 17349 ft | 344 kts | 257° |
| 2026-05-04 18:55 | 53.06988 | 2.21961 | 16594 ft | 341 kts | 257° |
| 2026-05-04 18:55 | 53.06453 | 2.18154 | 16220 ft | 340 kts | 257° |
| 2026-05-04 18:56 | 53.05914 | 2.14323 | 15842 ft | 338 kts | 257° |
| 2026-05-04 18:56 | 53.05355 | 2.10587 | 15468 ft | 337 kts | 251° |
| 2026-05-04 18:56 | 53.04181 | 2.07257 | 15114 ft | 337 kts | 234° |
| 2026-05-04 18:56 | 53.02763 | 2.04130 | 14726 ft | 337 kts | 234° |
| 2026-05-04 18:57 | 53.01351 | 2.01051 | 14351 ft | 335 kts | 234° |
| 2026-05-04 18:57 | 52.99943 | 1.97992 | 13983 ft | 334 kts | 234° |
| 2026-05-04 18:57 | 52.98544 | 1.94957 | 13619 ft | 333 kts | 234° |
| 2026-05-04 18:57 | 52.97137 | 1.91912 | 13244 ft | 331 kts | 234° |
| 2026-05-04 18:58 | 52.95755 | 1.88926 | 12885 ft | 329 kts | 233° |
| 2026-05-04 18:58 | 52.94369 | 1.85934 | 12522 ft | 327 kts | 234° |
| 2026-05-04 18:58 | 52.92989 | 1.82959 | 12168 ft | 326 kts | 234° |
| 2026-05-04 18:58 | 52.91613 | 1.79994 | 11808 ft | 323 kts | 233° |
| 2026-05-04 18:59 | 52.90254 | 1.77073 | 11444 ft | 318 kts | 234° |
| 2026-05-04 18:59 | 52.88925 | 1.74217 | 11093 ft | 310 kts | 234° |
| 2026-05-04 18:59 | 52.87632 | 1.71443 | 10761 ft | 302 kts | 234° |
| 2026-05-04 18:59 | 52.86367 | 1.68731 | 10431 ft | 294 kts | 234° |
| 2026-05-04 19:00 | 52.85135 | 1.66093 | 10106 ft | 287 kts | 234° |
| 2026-05-04 19:00 | 52.83945 | 1.63545 | 9804 ft | 281 kts | 234° |
| 2026-05-04 19:00 | 52.82748 | 1.60988 | 9484 ft | 279 kts | 234° |
| 2026-05-04 19:00 | 52.81562 | 1.58455 | 9193 ft | 279 kts | 234° |
| 2026-05-04 19:01 | 52.80370 | 1.55912 | 8868 ft | 279 kts | 234° |
| 2026-05-04 19:01 | 52.79185 | 1.53387 | 8576 ft | 278 kts | 234° |
| 2026-05-04 19:01 | 52.78014 | 1.50895 | 8271 ft | 277 kts | 234° |
| 2026-05-04 19:01 | 52.76841 | 1.48401 | 7957 ft | 275 kts | 234° |
| 2026-05-04 19:02 | 52.75682 | 1.45938 | 7645 ft | 266 kts | 234° |
| 2026-05-04 19:02 | 52.74573 | 1.43585 | 7366 ft | 258 kts | 234° |
| 2026-05-04 19:02 | 52.73488 | 1.41283 | 7086 ft | 250 kts | 234° |
| 2026-05-04 19:02 | 52.72435 | 1.39053 | 6812 ft | 244 kts | 234° |
| 2026-05-04 19:03 | 52.71404 | 1.36870 | 6545 ft | 237 kts | 234° |
| 2026-05-04 19:03 | 52.70417 | 1.34785 | 6360 ft | 226 kts | 233° |
| 2026-05-04 19:03 | 52.69282 | 1.33082 | 6086 ft | 219 kts | 204° |
| 2026-05-04 19:03 | 52.67825 | 1.33009 | 5856 ft | 210 kts | 160° |
| 2026-05-04 19:04 | 52.66703 | 1.34515 | 5273 ft | 217 kts | 118° |
| 2026-05-04 19:04 | 52.66055 | 1.36707 | 4934 ft | 212 kts | 112° |
| 2026-05-04 19:04 | 52.65482 | 1.38896 | 4638 ft | 206 kts | 110° |
| 2026-05-04 19:04 | 52.64956 | 1.41023 | 4390 ft | 198 kts | 109° |
| 2026-05-04 19:05 | 52.64461 | 1.43088 | 4165 ft | 191 kts | 109° |
| 2026-05-04 19:05 | 52.63992 | 1.45083 | 3952 ft | 183 kts | 108° |
| 2026-05-04 19:05 | 52.63544 | 1.47009 | 3747 ft | 176 kts | 108° |
| 2026-05-04 19:05 | 52.63264 | 1.48882 | 3536 ft | 166 kts | 80° |
| 2026-05-04 19:06 | 52.63771 | 1.50462 | 3423 ft | 154 kts | 34° |
| 2026-05-04 19:06 | 52.64743 | 1.50930 | 3143 ft | 149 kts | 353° |
| 2026-05-04 19:06 | 52.65670 | 1.50265 | 2845 ft | 147 kts | 331° |
| 2026-05-04 19:06 | 52.66531 | 1.49372 | 2608 ft | 147 kts | 329° |
| 2026-05-04 19:07 | 52.67315 | 1.48267 | 2353 ft | 152 kts | 303° |
| 2026-05-04 19:07 | 52.67554 | 1.46568 | 2156 ft | 156 kts | 276° |
| 2026-05-04 19:07 | 52.67593 | 1.44802 | 1969 ft | 156 kts | 272° |
| 2026-05-04 19:07 | 52.67649 | 1.43059 | 1747 ft | 145 kts | 275° |
| 2026-05-04 19:08 | 52.67665 | 1.41497 | 1530 ft | 129 kts | 273° |
| 2026-05-04 19:08 | 52.67664 | 1.40048 | 1356 ft | 126 kts | 273° |
| 2026-05-04 19:08 | 52.67658 | 1.38609 | 1204 ft | 127 kts | 272° |
| 2026-05-04 19:08 | 52.67650 | 1.37147 | 1039 ft | 128 kts | 272° |
| 2026-05-04 19:09 | 52.67641 | 1.35689 | 865 ft | 127 kts | 272° |
| 2026-05-04 19:09 | 52.67632 | 1.34233 | 692 ft | 127 kts | 272° |
| 2026-05-04 19:09 | 52.67625 | 1.32790 | 527 ft | 127 kts | 271° |
| 2026-05-04 19:09 | 52.67616 | 1.31326 | 345 ft | 127 kts | 270° |
| 2026-05-04 19:10 | 52.67605 | 1.29889 | 177 ft | 126 kts | 270° |
| 2026-05-04 19:10 | 52.67593 | 1.28947 | 103 ft | 118 kts | 270° |
| 2026-05-04 19:10 | 52.67594 | 1.27960 | 109 ft | 45 kts | 270° |
| 2026-05-04 19:10 | 52.67598 | 1.27474 | 119 ft | 38 kts | 270° |
| 2026-05-04 19:11 | 52.67598 | 1.27095 | 122 ft | 16 kts | 264° |
| 2026-05-04 19:11 | 52.67556 | 1.27065 | 121 ft | 5 kts | 96° |
| 2026-05-04 19:11 | 52.67577 | 1.27160 | 122 ft | 12 kts | 75° |
| 2026-05-04 19:11 | 52.67584 | 1.27341 | 120 ft | 20 kts | 88° |
| 2026-05-04 19:12 | 52.67590 | 1.27626 | 118 ft | 28 kts | 88° |
| 2026-05-04 19:12 | 52.67587 | 1.28344 | 100 ft | 15 kts | 132° |
| 2026-05-04 19:12 | 52.67496 | 1.28289 | 101 ft | 16 kts | 217° |
| 2026-05-04 19:13 | 52.67399 | 1.28171 | 104 ft | 17 kts | 217° |
| 2026-05-04 19:13 | 52.67304 | 1.28057 | 105 ft | 17 kts | 214° |
| 2026-05-04 19:13 | 52.67207 | 1.27930 | 106 ft | 17 kts | 235° |
| 2026-05-04 19:13 | 52.67132 | 1.27828 | 107 ft | 13 kts | 217° |
| 2026-05-04 19:14 | 52.67058 | 1.27799 | 108 ft | 11 kts | 136° |
| 2026-05-04 19:14 | 52.67031 | 1.27940 | 105 ft | 13 kts | 97° |
| 2026-05-04 19:14 | 52.66991 | 1.27976 | 104 ft | 5 kts | 202° |
| 2026-05-04 19:14 | 52.66964 | 1.27965 | 104 ft | 1 kts | 191° |
| 2026-05-04 19:15 | 52.66962 | 1.27965 | 104 ft | 0 kts | 191° |